createdAt,value
2023-04-02T00:00:25.809Z,92
2023-04-02T00:30:17.772Z,93
2023-04-02T01:00:20.289Z,93
2023-04-02T01:30:01.298Z,93
2023-04-02T02:00:14.808Z,92
2023-04-02T02:30:25.633Z,92
2023-04-02T03:00:19.093Z,91
2023-04-02T03:30:10.711Z,90
2023-04-02T04:00:17.446Z,91
2023-04-02T04:30:22.036Z,90
2023-04-02T05:00:03.008Z,90
2023-04-02T05:30:06.705Z,89
2023-04-02T06:00:09.161Z,89
2023-04-02T06:30:00.218Z,88
2023-04-02T07:00:21.923Z,89
2023-04-02T07:30:05.581Z,87
2023-04-02T08:00:07.470Z,88
2023-04-02T08:30:14.438Z,84
2023-04-02T09:00:27.829Z,83
2023-04-02T09:30:18.714Z,82
2023-04-02T10:00:01.933Z,81
2023-04-02T10:30:13.249Z,84
2023-04-02T11:00:08.460Z,80
2023-04-02T11:30:01.419Z,76
2023-04-02T12:00:23.583Z,74
2023-04-02T12:30:26.475Z,70
2023-04-02T13:30:26.195Z,63
2023-04-02T14:00:19.403Z,56
2023-04-02T14:30:30.015Z,68
2023-04-02T15:00:29.790Z,76
2023-04-02T15:30:13.711Z,72
2023-04-02T16:00:03.998Z,71
2023-04-02T16:30:18.496Z,74
2023-04-02T17:00:30.793Z,77
2023-04-02T17:30:19.956Z,83
2023-04-02T18:00:30.102Z,81
2023-04-02T18:30:11.079Z,82
2023-04-02T19:00:25.005Z,82
2023-04-02T19:30:05.395Z,83
2023-04-02T20:00:09.184Z,83
2023-04-02T20:30:00.609Z,83
2023-04-02T21:00:03.374Z,84
2023-04-02T21:30:05.698Z,84
2023-04-02T22:00:25.974Z,82
2023-04-02T22:30:24.016Z,82
2023-04-02T23:00:07.181Z,83
2023-04-02T23:30:28.334Z,82
